Time;durP1;ratioP1;P1;durP2;ratioP2;P2;SDS_P1;SDS_P2;PMS_P1;PMS_P2;Temp;Humidity;BMP_temperature;BMP_pressure;BME280_temperature;BME280_humidity;BME280_pressure;Samples;Min_cycle;Max_cycle;Signal;HPM_P1;HPM_P2
2023/09/29 00:02:16;;;;;;;;;;;16.80;99.90;;;;;;5049436;28;19924;-76
2023/09/29 00:04:41;;;;;;;;;;;16.70;99.90;;;;;;5056697;28;20521;-77
2023/09/29 00:07:07;;;;;;;;;;;16.70;99.90;;;;;;5047349;28;19943;-77
2023/09/29 00:09:33;;;;;;;;;;;16.70;99.90;;;;;;5050744;28;20028;-77
2023/09/29 00:11:59;;;;;;;;;;;16.70;99.90;;;;;;5047668;28;19967;-77
2023/09/29 00:14:25;;;;;;;;;;;16.70;99.90;;;;;;5049549;28;19921;-77
2023/09/29 00:16:50;;;;;;;;;;;16.70;99.90;;;;;;5048655;28;20176;-77
2023/09/29 00:19:16;;;;;;;;;;;16.70;99.90;;;;;;5055626;28;19920;-77
2023/09/29 00:21:41;;;;;;;;;;;16.70;99.90;;;;;;5059271;28;20054;-76
2023/09/29 00:24:07;;;;;;;;;;;16.70;99.90;;;;;;5052689;28;19928;-74
2023/09/29 00:26:32;;;;;;;;;;;16.70;99.90;;;;;;5055035;28;20397;-75
2023/09/29 00:28:59;;;;;;;;;;;16.70;99.90;;;;;;5048294;28;19925;-77
2023/09/29 00:31:24;;;;;;;;;;;16.70;99.90;;;;;;5050426;28;19928;-77
2023/09/29 00:33:50;;;;;;;;;;;16.70;99.90;;;;;;5051438;28;19931;-78
2023/09/29 00:36:16;;;;;;;;;;;16.70;99.90;;;;;;5060456;28;19931;-74
2023/09/29 00:38:41;;;;;;;;;;;16.70;99.90;;;;;;5047646;28;19929;-74
2023/09/29 00:41:07;;;;;;;;;;;16.70;99.90;;;;;;5052346;28;19925;-74
2023/09/29 00:43:35;;;;;;;;;;;16.70;99.90;;;;;;5051214;28;19921;-74
2023/09/29 00:46:03;;;;;;;;;;;16.70;99.90;;;;;;5043256;28;20012;-74
2023/09/29 00:48:33;;;;;;;;;;;16.70;99.90;;;;;;5048237;28;19948;-74
2023/09/29 00:50:59;;;;;;;;;;;16.70;99.90;;;;;;5033972;28;19926;-74
2023/09/29 00:53:24;;;;;;;;;;;16.70;99.90;;;;;;5049043;28;19920;-74
2023/09/29 00:55:50;;;;;;;;;;;16.60;99.90;;;;;;5048491;28;20555;-74
2023/09/29 00:58:17;;;;;;;;;;;16.70;99.90;;;;;;5051093;28;19924;-74
2023/09/29 01:00:43;;;;;;;;;;;16.70;99.90;;;;;;5052107;28;19921;-74
2023/09/29 01:03:10;;;;;;;;;;;16.70;99.90;;;;;;5045692;28;20394;-74
2023/09/29 01:05:42;;;;;;;;;;;16.70;99.90;;;;;;5045337;28;19927;-73
2023/09/29 01:08:09;;;;;;;;;;;16.70;99.90;;;;;;5047761;28;19920;-74
2023/09/29 01:10:35;;;;;;;;;;;16.70;99.90;;;;;;5056891;28;19986;-74
2023/09/29 01:13:01;;;;;;;;;;;16.70;99.90;;;;;;5048706;28;20003;-74
2023/09/29 01:15:27;;;;;;;;;;;16.70;99.90;;;;;;5050963;28;20007;-74
2023/09/29 01:17:52;;;;;;;;;;;16.70;99.90;;;;;;5047477;28;19966;-74
2023/09/29 01:20:27;;;;;;;;;;;16.70;99.90;;;;;;5056035;28;19927;-74
2023/09/29 01:22:53;;;;;;;;;;;16.70;99.90;;;;;;5056153;28;20004;-74
2023/09/29 01:25:19;;;;;;;;;;;16.70;99.90;;;;;;5051106;28;20052;-74
2023/09/29 01:27:45;;;;;;;;;;;16.70;99.90;;;;;;5059550;28;19916;-74
2023/09/29 01:30:13;;;;;;;;;;;16.70;99.90;;;;;;5056256;28;19931;-74
2023/09/29 01:32:43;;;;;;;;;;;16.70;99.90;;;;;;5058296;28;19979;-73
2023/09/29 01:35:14;;;;;;;;;;;16.70;99.90;;;;;;5047580;28;19929;-75
2023/09/29 01:37:42;;;;;;;;;;;16.70;99.90;;;;;;5057595;28;20375;-74
2023/09/29 01:40:09;;;;;;;;;;;16.70;99.90;;;;;;5056503;28;19916;-74
2023/09/29 01:42:35;;;;;;;;;;;16.70;99.90;;;;;;5053185;28;19971;-75
2023/09/29 01:45:02;;;;;;;;;;;16.70;99.90;;;;;;5054134;28;19928;-74
2023/09/29 01:47:28;;;;;;;;;;;16.70;99.90;;;;;;5059341;28;19928;-74
2023/09/29 01:49:53;;;;;;;;;;;16.70;99.90;;;;;;5060410;28;19962;-74
2023/09/29 01:52:22;;;;;;;;;;;16.70;99.90;;;;;;5056168;28;19925;-74
2023/09/29 01:54:49;;;;;;;;;;;16.70;99.90;;;;;;5055581;28;19928;-74
2023/09/29 01:57:16;;;;;;;;;;;16.70;99.90;;;;;;5061140;28;19920;-77
2023/09/29 01:59:41;;;;;;;;;;;16.60;99.90;;;;;;5054039;28;20240;-78
2023/09/29 02:02:07;;;;;;;;;;;16.60;99.90;;;;;;5056595;28;20426;-78
2023/09/29 02:04:34;;;;;;;;;;;16.60;99.90;;;;;;5057609;28;20249;-78
2023/09/29 02:07:00;;;;;;;;;;;16.60;99.90;;;;;;5060388;28;19977;-77
2023/09/29 02:09:26;;;;;;;;;;;16.60;99.90;;;;;;5053416;28;19928;-77
2023/09/29 02:11:54;;;;;;;;;;;16.60;99.90;;;;;;5055296;28;19963;-77
2023/09/29 02:14:20;;;;;;;;;;;16.70;99.90;;;;;;5051525;28;20497;-78
2023/09/29 02:16:48;;;;;;;;;;;16.70;99.90;;;;;;5051620;28;19928;-78
2023/09/29 02:19:16;;;;;;;;;;;16.60;99.90;;;;;;5062808;28;19920;-77
2023/09/29 02:21:45;;;;;;;;;;;16.70;99.90;;;;;;5054522;28;19920;-77
2023/09/29 02:24:11;;;;;;;;;;;16.60;99.90;;;;;;5053167;28;19940;-78
2023/09/29 02:26:38;;;;;;;;;;;16.70;99.90;;;;;;5055451;28;19931;-78
2023/09/29 02:29:04;;;;;;;;;;;16.70;99.90;;;;;;5058342;28;20014;-78
2023/09/29 02:31:30;;;;;;;;;;;16.70;99.90;;;;;;5057506;28;19931;-78
2023/09/29 02:33:55;;;;;;;;;;;16.70;99.90;;;;;;5056437;28;19917;-78
2023/09/29 02:36:21;;;;;;;;;;;16.70;99.90;;;;;;5050232;28;19921;-78
2023/09/29 02:38:47;;;;;;;;;;;16.70;99.90;;;;;;5052149;28;19960;-78
2023/09/29 02:41:13;;;;;;;;;;;16.70;99.90;;;;;;5053371;28;19928;-78
2023/09/29 02:43:38;;;;;;;;;;;16.70;99.90;;;;;;5047984;28;19921;-78
2023/09/29 02:46:04;;;;;;;;;;;16.70;99.90;;;;;;5055865;28;19928;-78
2023/09/29 02:48:30;;;;;;;;;;;16.70;99.90;;;;;;5042862;28;19963;-78
2023/09/29 02:50:56;;;;;;;;;;;16.70;99.90;;;;;;5056690;28;19921;-78
2023/09/29 02:53:21;;;;;;;;;;;16.70;99.90;;;;;;5050228;28;20050;-78
2023/09/29 02:55:47;;;;;;;;;;;16.70;99.90;;;;;;5049461;28;20360;-78
2023/09/29 02:58:13;;;;;;;;;;;16.70;99.90;;;;;;5055862;28;20001;-78
2023/09/29 03:00:41;;;;;;;;;;;16.70;99.90;;;;;;5061924;28;19970;-78
2023/09/29 03:03:09;;;;;;;;;;;16.70;99.90;;;;;;5052102;28;20356;-78
2023/09/29 03:05:34;;;;;;;;;;;16.70;99.90;;;;;;5052385;28;19921;-78
2023/09/29 03:08:00;;;;;;;;;;;16.70;99.90;;;;;;5055522;28;19925;-78
2023/09/29 03:10:27;;;;;;;;;;;16.60;99.90;;;;;;5048547;28;19921;-78
2023/09/29 03:12:55;;;;;;;;;;;16.70;99.90;;;;;;5063661;28;20003;-78
2023/09/29 03:15:22;;;;;;;;;;;16.70;99.90;;;;;;5048459;28;19921;-78
2023/09/29 03:17:48;;;;;;;;;;;16.70;99.90;;;;;;5049428;28;20024;-78
2023/09/29 03:20:14;;;;;;;;;;;16.70;99.90;;;;;;5060950;28;20269;-78
2023/09/29 03:22:40;;;;;;;;;;;16.70;99.90;;;;;;5063501;28;19924;-77
2023/09/29 03:25:06;;;;;;;;;;;16.70;99.90;;;;;;5061303;28;20396;-78
2023/09/29 03:27:33;;;;;;;;;;;16.70;99.90;;;;;;5062873;28;19974;-78
2023/09/29 03:29:59;;;;;;;;;;;16.70;99.90;;;;;;5052762;28;20430;-77
2023/09/29 03:32:25;;;;;;;;;;;16.70;99.90;;;;;;5053471;28;19928;-77
2023/09/29 03:34:50;;;;;;;;;;;16.70;99.90;;;;;;5050578;28;19929;-76
2023/09/29 03:37:16;;;;;;;;;;;16.70;99.90;;;;;;5050187;28;19925;-75
2023/09/29 03:39:41;;;;;;;;;;;16.70;99.90;;;;;;5051512;28;19971;-77
2023/09/29 03:42:07;;;;;;;;;;;16.70;99.90;;;;;;5058736;28;19921;-77
2023/09/29 03:44:33;;;;;;;;;;;16.70;99.90;;;;;;5056871;28;19935;-78
2023/09/29 03:46:58;;;;;;;;;;;16.70;99.90;;;;;;5049273;28;19925;-77
2023/09/29 03:49:24;;;;;;;;;;;16.70;99.90;;;;;;5060196;28;19928;-78
2023/09/29 03:51:51;;;;;;;;;;;16.70;99.90;;;;;;5050210;28;19924;-78
2023/09/29 03:54:18;;;;;;;;;;;16.70;99.90;;;;;;5053828;28;20586;-78
2023/09/29 03:56:44;;;;;;;;;;;16.70;99.90;;;;;;5048130;28;19936;-78
2023/09/29 03:59:10;;;;;;;;;;;16.70;99.90;;;;;;5055729;28;19950;-77
2023/09/29 04:01:36;;;;;;;;;;;16.70;99.90;;;;;;5056228;28;20080;-77
2023/09/29 04:04:02;;;;;;;;;;;16.70;99.90;;;;;;5049735;28;20011;-76
2023/09/29 04:06:28;;;;;;;;;;;16.70;99.90;;;;;;5059333;28;19927;-73
2023/09/29 04:08:55;;;;;;;;;;;16.80;99.90;;;;;;5063317;28;19922;-77
2023/09/29 04:11:21;;;;;;;;;;;16.80;99.90;;;;;;5054830;28;19931;-77
2023/09/29 04:13:46;;;;;;;;;;;16.80;99.90;;;;;;5049237;28;19920;-77
2023/09/29 04:16:14;;;;;;;;;;;16.80;99.90;;;;;;5054950;28;20328;-77
2023/09/29 04:18:39;;;;;;;;;;;16.70;99.90;;;;;;5051447;28;20011;-77
2023/09/29 04:21:12;;;;;;;;;;;16.80;99.90;;;;;;5051194;28;20431;-76
2023/09/29 04:23:37;;;;;;;;;;;16.80;99.90;;;;;;5058544;28;19927;-77
2023/09/29 04:26:03;;;;;;;;;;;16.80;99.90;;;;;;5055858;28;19921;-77
2023/09/29 04:28:29;;;;;;;;;;;16.80;99.90;;;;;;5048208;28;20332;-77
2023/09/29 04:30:54;;;;;;;;;;;16.80;99.90;;;;;;5058725;28;19920;-77
2023/09/29 04:33:20;;;;;;;;;;;16.80;99.90;;;;;;5050304;28;20329;-77
2023/09/29 04:35:45;;;;;;;;;;;16.80;99.90;;;;;;5057940;28;20016;-76
2023/09/29 04:38:11;;;;;;;;;;;16.80;99.90;;;;;;5053112;28;19925;-77
2023/09/29 04:40:37;;;;;;;;;;;16.80;99.90;;;;;;5057652;28;20375;-77
2023/09/29 04:43:04;;;;;;;;;;;16.80;99.90;;;;;;5050271;28;20417;-77
2023/09/29 04:45:30;;;;;;;;;;;16.80;99.90;;;;;;5051478;28;19925;-76
2023/09/29 04:47:58;;;;;;;;;;;16.80;99.90;;;;;;5056236;28;20285;-77
2023/09/29 04:50:23;;;;;;;;;;;16.80;99.90;;;;;;5059541;28;19931;-77
2023/09/29 04:52:49;;;;;;;;;;;16.80;99.90;;;;;;5057755;28;20341;-77
2023/09/29 04:55:15;;;;;;;;;;;16.90;99.90;;;;;;5048162;28;19978;-77
2023/09/29 04:57:41;;;;;;;;;;;16.80;99.90;;;;;;5048733;28;19924;-77
2023/09/29 05:00:07;;;;;;;;;;;16.80;99.90;;;;;;5054333;28;19927;-77
2023/09/29 05:02:32;;;;;;;;;;;16.90;99.90;;;;;;5052849;28;19990;-76
2023/09/29 05:04:58;;;;;;;;;;;16.80;99.90;;;;;;5047867;28;20335;-76
2023/09/29 05:07:24;;;;;;;;;;;16.90;99.90;;;;;;5045533;28;20012;-77
2023/09/29 05:09:49;;;;;;;;;;;16.80;99.90;;;;;;5048752;28;20015;-76
2023/09/29 05:12:15;;;;;;;;;;;16.80;99.90;;;;;;5046647;28;19921;-76
2023/09/29 05:14:41;;;;;;;;;;;16.90;99.90;;;;;;5046313;28;19928;-76
2023/09/29 05:17:07;;;;;;;;;;;16.90;99.90;;;;;;5053155;28;19986;-76
2023/09/29 05:19:32;;;;;;;;;;;16.90;99.90;;;;;;5051675;28;20268;-76
2023/09/29 05:21:58;;;;;;;;;;;16.90;99.90;;;;;;5053516;28;19920;-77
2023/09/29 05:24:23;;;;;;;;;;;16.90;99.90;;;;;;5055002;28;19921;-76
2023/09/29 05:26:49;;;;;;;;;;;16.90;99.90;;;;;;5046421;28;19920;-76
2023/09/29 05:29:14;;;;;;;;;;;16.80;99.90;;;;;;5055617;28;19921;-77
2023/09/29 05:31:40;;;;;;;;;;;16.90;99.90;;;;;;5052708;28;19928;-77
2023/09/29 05:34:05;;;;;;;;;;;16.90;99.90;;;;;;5054245;28;20402;-77
2023/09/29 05:36:31;;;;;;;;;;;16.90;99.90;;;;;;5047344;28;19967;-77
2023/09/29 05:38:57;;;;;;;;;;;16.90;99.90;;;;;;5047383;28;19921;-77
2023/09/29 05:41:23;;;;;;;;;;;16.90;99.90;;;;;;5050303;28;20328;-77
2023/09/29 05:43:49;;;;;;;;;;;16.90;99.90;;;;;;5048107;28;19940;-76
2023/09/29 05:46:14;;;;;;;;;;;16.90;99.90;;;;;;5050733;28;19944;-78
2023/09/29 05:48:40;;;;;;;;;;;16.90;99.90;;;;;;5056397;28;19924;-78
2023/09/29 05:51:05;;;;;;;;;;;17.00;99.90;;;;;;5049313;28;20015;-78
2023/09/29 05:53:31;;;;;;;;;;;17.00;99.90;;;;;;5051169;28;19935;-78
2023/09/29 05:56:03;;;;;;;;;;;17.00;99.90;;;;;;5053936;28;20433;-78
2023/09/29 05:58:29;;;;;;;;;;;17.00;99.90;;;;;;5054825;28;20557;-75
2023/09/29 06:00:56;;;;;;;;;;;17.00;99.90;;;;;;5058558;28;19924;-77
2023/09/29 06:03:21;;;;;;;;;;;17.00;99.90;;;;;;5046842;28;19921;-77
2023/09/29 06:05:47;;;;;;;;;;;17.00;99.90;;;;;;5054457;28;19987;-75
2023/09/29 06:08:13;;;;;;;;;;;17.00;99.90;;;;;;5050344;28;19927;-76
2023/09/29 06:10:38;;;;;;;;;;;17.00;99.90;;;;;;5045979;28;19985;-77
2023/09/29 06:13:04;;;;;;;;;;;17.00;99.90;;;;;;5047685;28;19925;-76
2023/09/29 06:15:29;;;;;;;;;;;17.00;99.90;;;;;;5050560;28;19937;-76
2023/09/29 06:17:56;;;;;;;;;;;17.00;99.90;;;;;;5053317;28;19927;-76
2023/09/29 06:20:22;;;;;;;;;;;17.00;99.90;;;;;;5051757;28;19948;-77
2023/09/29 06:22:47;;;;;;;;;;;17.10;99.90;;;;;;5051889;28;19920;-76
2023/09/29 06:25:13;;;;;;;;;;;17.10;99.90;;;;;;5065555;28;19931;-76
2023/09/29 06:27:39;;;;;;;;;;;17.10;99.90;;;;;;5051062;28;19936;-76
2023/09/29 06:30:04;;;;;;;;;;;17.10;99.90;;;;;;5053827;28;19935;-76
2023/09/29 06:32:30;;;;;;;;;;;17.10;99.90;;;;;;5049400;28;19921;-76
2023/09/29 06:34:56;;;;;;;;;;;17.10;99.90;;;;;;5055531;28;20668;-77
2023/09/29 06:37:22;;;;;;;;;;;17.10;99.90;;;;;;5052993;28;19932;-76
2023/09/29 06:39:48;;;;;;;;;;;17.10;99.90;;;;;;5058714;28;19931;-76
2023/09/29 06:42:13;;;;;;;;;;;17.20;99.90;;;;;;5059174;28;19923;-76
2023/09/29 06:44:39;;;;;;;;;;;17.20;99.90;;;;;;5063243;28;20294;-76
2023/09/29 06:47:05;;;;;;;;;;;17.10;99.90;;;;;;5060382;28;19920;-76
2023/09/29 06:49:30;;;;;;;;;;;17.20;99.90;;;;;;5063716;28;20010;-76
2023/09/29 06:51:56;;;;;;;;;;;17.20;99.90;;;;;;5052768;28;19944;-76
2023/09/29 06:54:22;;;;;;;;;;;17.20;99.90;;;;;;5055843;28;20319;-77
2023/09/29 06:56:47;;;;;;;;;;;17.20;99.90;;;;;;5062203;28;19959;-77
2023/09/29 06:59:13;;;;;;;;;;;17.20;99.90;;;;;;5057712;28;19925;-77
2023/09/29 07:01:38;;;;;;;;;;;17.20;99.90;;;;;;5058201;28;19936;-77
2023/09/29 07:04:04;;;;;;;;;;;17.20;99.90;;;;;;5054598;28;19924;-77
2023/09/29 07:06:30;;;;;;;;;;;17.20;99.90;;;;;;5055570;28;19924;-77
2023/09/29 07:08:55;;;;;;;;;;;17.20;99.90;;;;;;5053043;28;19929;-76
2023/09/29 07:11:21;;;;;;;;;;;17.30;99.90;;;;;;5051104;28;20338;-74
2023/09/29 07:13:47;;;;;;;;;;;17.30;99.90;;;;;;5049412;28;19927;-77
2023/09/29 07:16:13;;;;;;;;;;;17.30;99.90;;;;;;5062611;28;20019;-74
2023/09/29 07:18:41;;;;;;;;;;;17.30;99.90;;;;;;5052487;28;20010;-73
2023/09/29 07:21:06;;;;;;;;;;;17.30;99.90;;;;;;5054495;28;19982;-74
2023/09/29 07:23:34;;;;;;;;;;;17.30;99.90;;;;;;5065572;28;19996;-75
2023/09/29 07:25:59;;;;;;;;;;;17.30;99.90;;;;;;5064549;28;20454;-73
2023/09/29 07:28:25;;;;;;;;;;;17.40;99.90;;;;;;5054439;28;20003;-72
2023/09/29 07:30:50;;;;;;;;;;;17.40;99.90;;;;;;5052347;28;19933;-73
2023/09/29 07:33:16;;;;;;;;;;;17.40;99.90;;;;;;5060392;28;19920;-75
2023/09/29 07:35:45;;;;;;;;;;;17.50;99.90;;;;;;5058331;28;19920;-75
2023/09/29 07:38:11;;;;;;;;;;;17.50;99.90;;;;;;5059537;28;19938;-71
2023/09/29 07:40:37;;;;;;;;;;;17.50;99.90;;;;;;5055910;28;19921;-73
2023/09/29 07:43:03;;;;;;;;;;;17.50;99.90;;;;;;5060463;28;20037;-73
2023/09/29 07:45:29;;;;;;;;;;;17.60;99.90;;;;;;5049110;28;20007;-74
2023/09/29 07:47:55;;;;;;;;;;;17.60;99.90;;;;;;5063370;28;20020;-72
2023/09/29 07:50:20;;;;;;;;;;;17.60;99.90;;;;;;5048799;28;19970;-75
2023/09/29 07:52:46;;;;;;;;;;;17.60;99.90;;;;;;5063273;28;19928;-73
2023/09/29 07:55:11;;;;;;;;;;;17.70;99.90;;;;;;5053451;28;19951;-73
2023/09/29 07:57:37;;;;;;;;;;;17.70;99.90;;;;;;5050903;28;19921;-76
2023/09/29 08:00:08;;;;;;;;;;;17.80;99.90;;;;;;5049715;28;19971;-72
2023/09/29 08:02:34;;;;;;;;;;;17.80;99.90;;;;;;5051432;28;19921;-72
2023/09/29 08:05:00;;;;;;;;;;;17.80;99.90;;;;;;5051143;28;19932;-73
2023/09/29 08:07:26;;;;;;;;;;;17.90;99.90;;;;;;5049838;28;19967;-75
2023/09/29 08:09:53;;;;;;;;;;;17.90;99.90;;;;;;5057997;28;19920;-72
2023/09/29 08:12:18;;;;;;;;;;;17.90;99.90;;;;;;5063305;28;19927;-72
2023/09/29 08:14:44;;;;;;;;;;;18.00;99.90;;;;;;5062942;28;19920;-73
2023/09/29 08:17:09;;;;;;;;;;;18.00;99.90;;;;;;5053557;28;20332;-73
2023/09/29 08:19:35;;;;;;;;;;;18.00;99.90;;;;;;5049365;28;20291;-74
2023/09/29 08:22:01;;;;;;;;;;;18.10;99.90;;;;;;5058617;28;19921;-75
2023/09/29 08:24:26;;;;;;;;;;;18.10;99.90;;;;;;5048511;28;19921;-73
2023/09/29 08:26:52;;;;;;;;;;;18.10;99.90;;;;;;5060088;28;19920;-74
2023/09/29 08:29:18;;;;;;;;;;;18.20;99.90;;;;;;5051675;28;19916;-74
2023/09/29 08:31:43;;;;;;;;;;;18.20;99.90;;;;;;5051765;28;19921;-74
2023/09/29 08:34:09;;;;;;;;;;;18.30;99.90;;;;;;5057429;28;19977;-75
2023/09/29 08:36:35;;;;;;;;;;;18.40;99.90;;;;;;5052568;28;20364;-73
2023/09/29 08:39:01;;;;;;;;;;;18.40;99.90;;;;;;5051316;28;19928;-75
2023/09/29 08:41:27;;;;;;;;;;;18.50;99.90;;;;;;5048300;28;19923;-73
2023/09/29 08:43:53;;;;;;;;;;;18.60;99.90;;;;;;5049069;28;20609;-74
2023/09/29 08:46:18;;;;;;;;;;;18.70;99.90;;;;;;5063496;28;19924;-75
2023/09/29 08:48:45;;;;;;;;;;;18.80;99.90;;;;;;5052455;28;20453;-75
2023/09/29 08:51:12;;;;;;;;;;;18.80;99.90;;;;;;5057915;28;19931;-71
2023/09/29 08:53:39;;;;;;;;;;;18.80;99.90;;;;;;5054236;28;19917;-69
2023/09/29 08:56:11;;;;;;;;;;;18.90;99.90;;;;;;5055423;28;20003;-71
2023/09/29 08:58:37;;;;;;;;;;;19.00;99.90;;;;;;5059447;28;20351;-79
2023/09/29 09:01:03;;;;;;;;;;;19.10;99.90;;;;;;5058335;28;19916;-72
2023/09/29 09:03:28;;;;;;;;;;;19.10;99.90;;;;;;5049943;28;20000;-76
2023/09/29 09:05:55;;;;;;;;;;;19.20;99.90;;;;;;5059163;28;19973;-73
2023/09/29 09:08:21;;;;;;;;;;;19.30;99.90;;;;;;5050174;28;19928;-82
2023/09/29 09:10:47;;;;;;;;;;;19.40;99.90;;;;;;5048456;28;19951;-77
2023/09/29 09:13:20;;;;;;;;;;;19.50;99.90;;;;;;5061515;28;19921;-74
2023/09/29 09:15:54;;;;;;;;;;;19.50;99.90;;;;;;5063352;28;20291;-83
2023/09/29 09:18:19;;;;;;;;;;;19.60;99.90;;;;;;5055821;28;20366;-74
2023/09/29 09:20:50;;;;;;;;;;;19.70;99.90;;;;;;5053221;28;19971;-76
2023/09/29 09:23:15;;;;;;;;;;;19.80;99.90;;;;;;5052108;28;19920;-75
2023/09/29 09:25:44;;;;;;;;;;;19.80;99.90;;;;;;5055797;28;20038;-76
2023/09/29 09:28:16;;;;;;;;;;;19.80;99.90;;;;;;5052638;28;19920;-76
2023/09/29 09:30:42;;;;;;;;;;;19.90;99.90;;;;;;5057099;28;19928;-76
2023/09/29 09:33:15;;;;;;;;;;;19.90;99.90;;;;;;5052227;28;19920;-78
2023/09/29 09:35:42;;;;;;;;;;;20.00;99.90;;;;;;5060126;28;20011;-75
2023/09/29 09:38:08;;;;;;;;;;;20.00;99.90;;;;;;5052158;28;19924;-78
2023/09/29 09:40:34;;;;;;;;;;;20.10;99.90;;;;;;5065266;28;20449;-78
2023/09/29 09:43:10;;;;;;;;;;;20.10;99.90;;;;;;5050776;28;19924;-73
2023/09/29 09:45:39;;;;;;;;;;;20.20;99.90;;;;;;5049392;28;20334;-73
2023/09/29 09:48:06;;;;;;;;;;;20.20;99.90;;;;;;5050369;28;19931;-75
2023/09/29 09:50:32;;;;;;;;;;;20.20;99.90;;;;;;5053649;28;20411;-75
2023/09/29 09:52:59;;;;;;;;;;;20.30;99.90;;;;;;5048195;28;19921;-76
2023/09/29 09:55:28;;;;;;;;;;;20.30;99.90;;;;;;5054534;28;19946;-73
2023/09/29 09:57:54;;;;;;;;;;;20.30;99.90;;;;;;5059530;28;19931;-76
2023/09/29 10:00:19;;;;;;;;;;;20.40;99.90;;;;;;5066395;28;19920;-76
2023/09/29 10:02:52;;;;;;;;;;;20.40;99.90;;;;;;5060863;28;19930;-76
2023/09/29 10:05:31;;;;;;;;;;;20.50;99.90;;;;;;5054363;28;19921;-75
2023/09/29 10:08:01;;;;;;;;;;;20.50;99.90;;;;;;5051650;28;20635;-73
2023/09/29 10:10:31;;;;;;;;;;;20.50;99.90;;;;;;5061392;28;19920;-73
2023/09/29 10:12:58;;;;;;;;;;;20.60;99.90;;;;;;5055299;28;19967;-73
2023/09/29 10:15:29;;;;;;;;;;;20.60;99.90;;;;;;5057743;28;19920;-72
2023/09/29 10:18:13;;;;;;;;;;;20.60;99.90;;;;;;5055356;28;19955;-73
2023/09/29 10:20:38;;;;;;;;;;;20.60;99.90;;;;;;5058054;28;20296;-75
2023/09/29 10:23:14;;;;;;;;;;;20.70;99.90;;;;;;5062795;28;19935;-73
2023/09/29 10:25:42;;;;;;;;;;;20.70;99.90;;;;;;5064178;28;19920;-76
2023/09/29 10:28:08;;;;;;;;;;;20.70;99.90;;;;;;5050564;28;19921;-75
2023/09/29 10:30:34;;;;;;;;;;;20.70;99.90;;;;;;5049785;28;19920;-74
2023/09/29 10:33:07;;;;;;;;;;;20.70;99.90;;;;;;5053413;28;20018;-75
2023/09/29 10:35:36;;;;;;;;;;;20.80;99.90;;;;;;5064512;28;19921;-75
2023/09/29 10:38:11;;;;;;;;;;;20.80;99.90;;;;;;5062469;28;19932;-79
2023/09/29 10:40:37;;;;;;;;;;;20.90;99.90;;;;;;5052578;28;20867;-81
2023/09/29 10:43:04;;;;;;;;;;;20.90;99.90;;;;;;5061454;28;19924;-82
2023/09/29 10:45:36;;;;;;;;;;;21.00;99.90;;;;;;5052630;28;19932;-79
2023/09/29 10:48:06;;;;;;;;;;;21.00;99.90;;;;;;5060906;28;20559;-77
2023/09/29 10:50:38;;;;;;;;;;;21.00;99.90;;;;;;5049596;28;20000;-76
2023/09/29 10:53:04;;;;;;;;;;;21.00;99.90;;;;;;5049485;28;19968;-75
2023/09/29 10:55:30;;;;;;;;;;;21.00;99.90;;;;;;5051151;28;19972;-75
2023/09/29 10:57:59;;;;;;;;;;;20.90;99.90;;;;;;5056228;28;19981;-76
2023/09/29 11:00:24;;;;;;;;;;;20.90;99.90;;;;;;5058603;28;20589;-75
2023/09/29 11:02:52;;;;;;;;;;;20.90;99.90;;;;;;5052507;28;19929;-78
2023/09/29 11:05:19;;;;;;;;;;;20.90;99.90;;;;;;5055182;28;19924;-77
2023/09/29 11:07:50;;;;;;;;;;;20.90;99.90;;;;;;5078848;28;20507;-76
2023/09/29 11:10:17;;;;;;;;;;;20.90;99.90;;;;;;5073671;28;20443;-76
2023/09/29 11:12:46;;;;;;;;;;;20.80;99.90;;;;;;5072756;28;19928;-77
2023/09/29 11:17:45;;;;;;;7.80;4.43;;;20.70;99.90;;;;;;5155527;27;20191;-76
2023/09/29 11:23:14;;;;;;;7.75;4.20;;;20.80;99.90;;;;;;5097357;27;20043;-75
2023/09/29 11:25:50;;;;;;;6.93;3.80;;;20.70;99.90;;;;;;5126722;27;20044;-74
2023/09/29 11:28:17;;;;;;;8.48;4.45;;;20.70;99.90;;;;;;5138252;27;20046;-77
2023/09/29 11:30:43;;;;;;;;;;;20.70;99.90;;;;;;5117406;27;20065;-78
2023/09/29 11:33:14;;;;;;;6.68;4.15;;;20.70;99.90;;;;;;5115056;27;19920;-75
2023/09/29 11:35:46;;;;;;;10.15;4.45;;;20.80;99.90;;;;;;5109806;28;20060;-79
2023/09/29 11:38:19;;;;;;;7.22;4.25;;;20.80;99.90;;;;;;5126807;27;20082;-78
2023/09/29 11:40:47;;;;;;;7.13;4.15;;;20.90;99.90;;;;;;5127453;27;20094;-76
2023/09/29 11:43:12;;;;;;;8.68;4.43;;;20.90;99.90;;;;;;5120719;27;20557;-73
2023/09/29 11:45:39;;;;;;;7.70;4.25;;;20.90;99.90;;;;;;5112000;28;20093;-72
2023/09/29 11:48:05;;;;;;;7.40;4.50;;;21.00;99.90;;;;;;5121027;27;20035;-73
2023/09/29 11:50:33;;;;;;;7.15;4.35;;;21.00;99.90;;;;;;5110245;27;20046;-73
2023/09/29 11:53:03;;;;;;;8.32;4.53;;;21.10;99.90;;;;;;5107558;27;20050;-74
2023/09/29 11:55:29;;;;;;;7.90;4.20;;;21.10;99.90;;;;;;5138518;27;20065;-74
2023/09/29 11:57:55;;;;;;;8.90;5.18;;;21.20;99.90;;;;;;5132185;27;20051;-73
2023/09/29 12:00:21;;;;;;;7.72;4.20;;;21.20;99.90;;;;;;5113994;28;20056;-73
2023/09/29 12:02:46;;;;;;;8.60;4.25;;;21.20;99.90;;;;;;5124483;27;20043;-73
2023/09/29 12:05:12;;;;;;;7.18;4.38;;;21.20;99.90;;;;;;5106708;28;20043;-73
2023/09/29 12:07:37;;;;;;;7.45;4.38;;;21.20;99.90;;;;;;5124581;27;20108;-73
2023/09/29 12:10:04;;;;;;;8.10;4.40;;;21.20;99.90;;;;;;5114930;28;20122;-73
2023/09/29 12:12:32;;;;;;;9.15;4.30;;;21.20;99.90;;;;;;5105850;27;20058;-73
2023/09/29 12:14:58;;;;;;;7.43;4.28;;;21.20;99.90;;;;;;5117890;27;20078;-73
2023/09/29 12:17:24;;;;;;;7.43;4.00;;;21.20;99.90;;;;;;5124515;27;20059;-73
2023/09/29 12:19:49;;;;;;;8.10;4.10;;;21.20;99.90;;;;;;5125001;27;20047;-73
2023/09/29 12:22:15;;;;;;;7.63;4.03;;;21.20;99.90;;;;;;5112005;27;20051;-73
2023/09/29 12:24:41;;;;;;;9.50;4.30;;;21.30;99.90;;;;;;5128847;27;20613;-73
2023/09/29 12:27:10;;;;;;;8.20;4.03;;;21.30;99.90;;;;;;5121339;27;20044;-73
2023/09/29 12:29:36;;;;;;;7.35;4.05;;;21.30;99.90;;;;;;5095378;28;20050;-73
2023/09/29 12:32:02;;;;;;;8.95;4.07;;;21.20;99.90;;;;;;5114035;27;20128;-73
2023/09/29 12:34:34;;;;;;;7.38;4.18;;;21.20;99.90;;;;;;5116827;27;20088;-73
2023/09/29 12:37:00;;;;;;;9.77;4.22;;;21.20;99.90;;;;;;5092055;28;20051;-74
2023/09/29 12:39:26;;;;;;;6.90;4.03;;;21.20;99.90;;;;;;5093374;28;20050;-73
2023/09/29 12:41:52;;;;;;;7.97;3.70;;;21.20;99.90;;;;;;5111656;27;20069;-73
2023/09/29 12:44:18;;;;;;;7.75;3.90;;;21.20;99.90;;;;;;5094673;28;20044;-73
2023/09/29 12:46:44;;;;;;;6.28;3.50;;;21.10;99.90;;;;;;5111159;28;20483;-73
2023/09/29 12:49:11;;;;;;;6.72;3.50;;;21.10;99.90;;;;;;5100217;27;20047;-73
2023/09/29 12:51:37;;;;;;;6.55;4.07;;;21.10;99.90;;;;;;5096872;28;20542;-73
2023/09/29 12:54:03;;;;;;;8.07;3.75;;;21.10;99.90;;;;;;5116329;27;20055;-73
2023/09/29 12:56:29;;;;;;;7.53;3.90;;;21.10;99.90;;;;;;5093872;27;20027;-76
2023/09/29 12:58:55;;;;;;;9.02;4.22;;;21.00;99.90;;;;;;5114898;27;20043;-76
2023/09/29 13:01:22;;;;;;;7.78;4.38;;;20.90;99.90;;;;;;5115580;27;20051;-71
2023/09/29 13:03:48;;;;;;;5.90;4.10;;;20.80;99.90;;;;;;5094344;27;20424;-75
2023/09/29 13:06:13;;;;;;;7.18;4.43;;;20.70;99.90;;;;;;5126564;27;20185;-74
2023/09/29 13:08:39;;;;;;;7.10;4.50;;;20.60;99.90;;;;;;5097334;28;20482;-74
2023/09/29 13:11:05;;;;;;;6.60;4.53;;;20.60;99.90;;;;;;5108745;27;20094;-73
2023/09/29 13:13:31;;;;;;;7.10;4.70;;;20.50;99.90;;;;;;5119750;27;20043;-74
2023/09/29 13:15:58;;;;;;;7.85;4.15;;;20.50;99.90;;;;;;5095853;28;20127;-73
2023/09/29 13:18:26;;;;;;;7.78;4.80;;;20.40;99.90;;;;;;5102617;28;20051;-74
2023/09/29 13:20:52;;;;;;;6.60;4.93;;;20.40;99.90;;;;;;5106348;27;20482;-73
2023/09/29 13:23:18;;;;;;;8.10;4.80;;;20.50;99.90;;;;;;5092349;28;20085;-77
2023/09/29 13:25:44;;;;;;;8.77;4.53;;;20.50;99.90;;;;;;5110108;27;20545;-75
2023/09/29 13:28:10;;;;;;;5.50;4.07;;;20.50;99.90;;;;;;5093700;28;20043;-75
2023/09/29 13:30:36;;;;;;;7.07;4.13;;;20.50;99.90;;;;;;5096139;27;20078;-74
2023/09/29 13:33:02;;;;;;;9.50;4.88;;;20.50;99.90;;;;;;5110259;27;20051;-75
2023/09/29 13:35:28;;;;;;;6.43;4.03;;;20.60;99.90;;;;;;5116674;27;20043;-79
2023/09/29 13:37:54;;;;;;;7.22;4.40;;;20.60;99.90;;;;;;5093307;27;20039;-74
2023/09/29 13:40:20;;;;;;;4.80;3.72;;;20.60;99.90;;;;;;5102689;28;20055;-74
2023/09/29 13:42:47;;;;;;;8.43;4.90;;;20.60;99.90;;;;;;5104431;27;20063;-76
2023/09/29 13:45:13;;;;;;;4.43;2.13;;;20.50;99.90;;;;;;5095912;28;20483;-75
2023/09/29 13:47:39;;;;;;;3.43;2.00;;;20.40;99.90;;;;;;5097434;27;20043;-75
2023/09/29 13:50:07;;;;;;;2.45;1.65;;;20.20;99.90;;;;;;5103138;27;22342;-75
2023/09/29 13:52:33;;;;;;;2.50;1.75;;;20.00;99.90;;;;;;5098202;27;20473;-74
2023/09/29 13:54:59;;;;;;;3.42;1.80;;;19.80;99.90;;;;;;5103292;27;20047;-74
2023/09/29 13:57:25;;;;;;;2.25;1.40;;;19.60;99.90;;;;;;5102911;28;20059;-74
2023/09/29 13:59:50;;;;;;;1.33;0.80;;;19.50;99.90;;;;;;5100371;27;20563;-74
2023/09/29 14:02:16;;;;;;;1.45;0.70;;;19.40;99.90;;;;;;5099110;27;20377;-76